Arcadia — ZCDN9 — position and weather

sailwx.info

Track history (hours):
 
Tides and Currents Weather Stations Pressure Air Temp Water Temp Dewpoint Dewpoint Depression Visibility Wind Speed Wind Dir Waves Ship Positions

Arcadia

Last reported at 2018-May-19 21:00 UTC. Time now 2018-May-20 21:24 UTC.
Position N 37°06' E 023°54'.

Length 285.1 m; beam 32.2 m; draft 8 m.

Type: Passenger vessel. MMSI: 310473000.

Wind at 4 knots

Barometer 1011.2 mb
Air temperature 22.0 ° C
Visibility: greater than 10.8 NM
Dewpoint 19.2 ° C
Water temperature 21.6 ° C

Date/timePositionNaut miles runAvg speedWind from/ knotsBaromVisibWave heightAir tempDewpointWater temp
2018-May-19 21:00N 37°06' E 023°54'2513.4 1011.210.8 22.019.221.6
2018-May-19 19:09N 37°30' E 023°47'214.7
2018-May-19 19:00N 37°32' E 023°46'714.8
2018-May-19 18:30N 37°39' E 023°43'714.7
2018-May-19 18:00N 37°45' E 023°39'714.1
2018-May-19 17:30N 37°52' E 023°37'4 8.4
2018-May-19 17:00N 37°56' E 023°38'0 0.6
2018-May-19 16:29N 37°56' E 023°38'0 0.0
2018-May-19 15:59N 37°56' E 023°38'0 0.0
2018-May-19 15:29N 37°56' E 023°38'0 0.0
2018-May-19 14:59N 37°56' E 023°38'0 0.0
2018-May-19 14:29N 37°56' E 023°38'0 0.0
2018-May-19 13:59N 37°56' E 023°38'0 0.0
2018-May-19 13:29N 37°56' E 023°38'0 0.0
2018-May-19 12:59N 37°56' E 023°38'0 0.0
2018-May-19 12:29N 37°56' E 023°38'0 0.0
2018-May-19 11:59N 37°56' E 023°38'0 0.0
2018-May-19 11:29N 37°56' E 023°38'0 0.0
2018-May-19 10:59N 37°56' E 023°38'0 0.0
2018-May-19 10:29N 37°56' E 023°38'0 0.0
2018-May-19 09:59N 37°56' E 023°38'0 0.0
2018-May-19 09:29N 37°56' E 023°38'0 0.0
2018-May-19 08:59N 37°56' E 023°38'0 0.0
2018-May-19 08:29N 37°56' E 023°38'0 0.0
2018-May-19 07:59N 37°56' E 023°38'0 0.0
2018-May-19 07:29N 37°56' E 023°38'0 0.0
2018-May-19 06:58N 37°56' E 023°38'0 0.0
2018-May-19 06:28N 37°56' E 023°38'0 0.0
2018-May-19 05:58N 37°56' E 023°38'0 0.0
2018-May-19 05:28N 37°56' E 023°38'0 0.0
2018-May-19 04:58N 37°56' E 023°38'0 0.0
2018-May-19 04:28N 37°56' E 023°38'0 0.0
2018-May-19 03:58N 37°56' E 023°38'0 0.0
2018-May-19 03:28N 37°56' E 023°38'0 0.0
2018-May-19 02:58N 37°56' E 023°38'0 0.0
2018-May-19 02:28N 37°56' E 023°38'0 0.0
2018-May-19 01:58N 37°56' E 023°38'0 0.9
2018-May-19 01:30N 37°56' E 023°38'3 5.6
2018-May-19 01:00N 37°54' E 023°38'612.2
2018-May-19 00:30N 37°48' E 023°41'612.4
2018-May-19 00:01N 37°43' E 023°45'815.5
2018-May-18 23:31N 37°35' E 023°48'815.7
2018-May-18 23:00N 37°27' E 023°47'815.4
2018-May-18 22:30N 37°20' E 023°45'815.3
2018-May-18 22:00N 37°13' E 023°42'2626.0
2018-May-18 21:00N 36°48' E 023°54'1731.7 100 / 171012.510.8 22.217.420.6
2018-May-18 20:27N 36°50' E 023°33'27619.1
2018-May-18 06:00N 36°06' E 017°54'13617.0 080 / 221011.410.8 21.018.120.2
2018-May-17 22:00N 36°06' E 015°06'31 1.4 050 / 261013.2 5.4 18.916.618.1
2018-May-17 00:17N 35°54' E 014°31'1412.4
2018-May-16 23:08N 36°04' E 014°44'315.1
2018-May-16 22:56N 36°06' E 014°46'915.1
2018-May-16 22:21N 36°12' E 014°54'615.0
2018-May-16 21:55N 36°17' E 014°60'916.9
2018-May-16 21:23N 36°24' E 015°07'7517.0
2018-May-16 17:00N 37°36' E 015°30'2217.2 170 / 31016.610.8 17.913.119.0
2018-May-16 15:41N 37°58' E 015°33'518.4
2018-May-16 15:25N 38°03' E 015°34'718.5
2018-May-16 15:00N 38°11' E 015°35'2 0.2
2018-May-16 05:37N 38°12' E 015°33'0 0.2
2018-May-16 05:31N 38°12' E 015°34'2 3.4
2018-May-16 05:00N 38°13' E 015°35'712.9
2018-May-16 04:30N 38°17' E 015°41'714.6
2018-May-16 04:00N 38°23' E 015°35'713.9
2018-May-16 03:30N 38°30' E 015°33'713.9
2018-May-16 03:00N 38°36' E 015°30'714.0
2018-May-16 02:30N 38°43' E 015°27'917.1
2018-May-16 02:00N 38°48' E 015°18'6568.1 260 / 121016.410.8 17.210.919.1
2018-May-16 01:59N 38°49' E 015°25'5 8.3
2018-May-16 01:19N 38°54' E 015°23'3410.2
2018-May-15 22:00N 39°06' E 014°42'53 8.8 250 / 141016.010.8 16.9 9.619.0
2018-May-15 16:00N 39°18' E 013°36'92 9.2 280 / 191015.710.8 18.8 8.218.8
2018-May-15 06:00N 40°18' E 012°06'37 9.3 360 / 41014.610.8 16.2 8.818.2
2018-May-15 02:00N 40°54' E 011°54'85 3.5 310 / 151014.610.8 15.1 8.218.0
2018-May-14 02:00N 42°06' E 010°54'2212.4 360 / 151011.110.8 15.811.219.1
2018-May-14 00:11N 42°24' E 010°35'416.4
2018-May-13 23:57N 42°26' E 010°32'918.8
2018-May-13 23:27N 42°32' E 010°22'1219.2
2018-May-13 22:50N 42°39' E 010°09'1619.1
2018-May-13 22:00N 42°48' E 009°51'1817.5
2018-May-13 20:59N 43°02' E 009°35'818.0
2018-May-13 20:30N 43°10' E 009°34'918.3
2018-May-13 20:00N 43°19' E 009°33'917.9
2018-May-13 19:30N 43°28' E 009°32'917.5
2018-May-13 19:00N 43°37' E 009°36'918.0
2018-May-13 18:30N 43°45' E 009°41'918.2
2018-May-13 18:00N 43°53' E 009°47'918.4
2018-May-13 17:30N 44°01' E 009°52'510.1
2018-May-13 17:00N 44°06' E 009°50'0 0.3
2018-May-13 16:26N 44°06' E 009°50'0 0.0
2018-May-13 15:56N 44°06' E 009°50'0 0.0
2018-May-13 15:26N 44°06' E 009°50'0 0.0
2018-May-13 14:56N 44°06' E 009°50'0 0.0
2018-May-13 14:26N 44°06' E 009°50'0 0.0
2018-May-13 13:56N 44°06' E 009°50'0 0.0
2018-May-13 13:26N 44°06' E 009°50'0 0.0
2018-May-13 12:56N 44°06' E 009°50'0 0.0
2018-May-13 12:26N 44°06' E 009°50'0 0.0
2018-May-13 11:56N 44°06' E 009°50'0 0.0
2018-May-13 11:26N 44°06' E 009°50'0 0.0
2018-May-13 10:56N 44°06' E 009°50'0 0.0
2018-May-13 10:26N 44°06' E 009°50'0 0.0
2018-May-13 09:56N 44°06' E 009°50'0 0.0
2018-May-13 09:26N 44°06' E 009°50'0 0.0
2018-May-13 08:56N 44°06' E 009°50'0 0.0
2018-May-13 08:26N 44°06' E 009°50'0 0.0
2018-May-13 07:56N 44°06' E 009°50'0 0.0
2018-May-13 07:26N 44°06' E 009°50'0 0.0
2018-May-13 06:56N 44°06' E 009°50'0 0.0
2018-May-13 06:26N 44°06' E 009°50'0 0.0
2018-May-13 05:56N 44°06' E 009°50'0 0.0
2018-May-13 05:26N 44°06' E 009°50'0 0.0
2018-May-13 04:57N 44°06' E 009°50'0 1.0
2018-May-13 04:30N 44°06' E 009°51'3 6.5
2018-May-13 04:00N 44°03' E 009°52'611.1
2018-May-13 03:30N 43°59' E 009°58'612.8
2018-May-13 03:00N 43°54' E 009°53'713.3
2018-May-13 02:30N 43°49' E 009°48'713.6
2018-May-13 02:00N 43°43' E 009°42'713.6
2018-May-13 01:30N 43°38' E 009°36'713.5
2018-May-13 01:00N 43°32' E 009°31'612.9
2018-May-13 00:30N 43°27' E 009°25'612.9
2018-May-13 00:00N 43°22' E 009°20'713.0
2018-May-12 23:30N 43°17' E 009°15'9112.1
2018-May-12 16:00N 41°54' E 008°24'15 1.2 340 / 111015.610.8 18.312.618.6
2018-May-12 04:00N 41°42' E 008°36'2813.8 010 / 101018.110.8 16.112.518.2
2018-May-12 02:00N 41°18' E 008°54'6212.4 300 / 141018.210.8 17.013.117.3
2018-May-11 21:00N 40°48' E 010°06'5112.8 270 / 241017.710.8 18.110.518.0
2018-May-11 17:00N 40°00' E 010°30'5 4.6 210 / 71017.310.8 20.615.620.2
2018-May-11 16:00N 40°00' E 010°36'22015.7 210 / 61017.310.8 20.015.020.0
2018-May-11 02:00N 36°54' E 013°06'416.1 320 / 201015.210.8 17.016.317.5
2018-May-11 01:45N 36°58' E 013°07'415.2
2018-May-11 01:28N 36°55' E 013°12'715.3
2018-May-11 01:00N 36°51' E 013°19'815.3
2018-May-11 00:30N 36°47' E 013°27'815.3
2018-May-11 00:00N 36°42' E 013°35'815.2
2018-May-10 23:30N 36°37' E 013°42'715.1
2018-May-10 23:01N 36°32' E 013°49'714.7
2018-May-10 22:30N 36°27' E 013°55'714.7
2018-May-10 22:00N 36°22' E 014°02'714.8
2018-May-10 21:30N 36°17' E 014°09'814.9
2018-May-10 20:59N 36°12' E 014°17'715.1
2018-May-10 20:30N 36°08' E 014°24'715.1
2018-May-10 20:01N 36°03' E 014°31'814.7
2018-May-10 19:30N 35°56' E 014°34'4 0.2
2018-May-10 03:29N 35°53' E 014°31'3 5.6
2018-May-10 03:00N 35°55' E 014°33'611.2
2018-May-10 02:30N 35°59' E 014°39'612.1
2018-May-10 02:01N 36°02' E 014°44'9 8.5
2018-May-10 01:00N 36°06' E 014°54'   330 / 111008.310.8 17.415.019.0
Track history (hours):
 
Tides and Currents Weather Stations Pressure Air Temp Water Temp Dewpoint Dewpoint Depression Visibility Wind Speed Wind Dir Waves Ship Positions

Arcadia

Last reported at 2018-May-19 21:00 UTC. Time now 2018-May-20 21:24 UTC.
Position N 37°06' E 023°54'.

Length 285.1 m; beam 32.2 m; draft 8 m.

Type: Passenger vessel. MMSI: 310473000.

Wind at 4 knots

Barometer 1011.2 mb
Air temperature 22.0 ° C
Visibility: greater than 10.8 NM
Dewpoint 19.2 ° C
Water temperature 21.6 ° C

Date/timePositionNaut miles runAvg speedWind from/ knotsBaromVisibWave heightAir tempDewpointWater temp
2018-May-19 21:00N 37°06' E 023°54'2513.4 1011.210.8 22.019.221.6
2018-May-19 19:09N 37°30' E 023°47'214.7
2018-May-19 19:00N 37°32' E 023°46'714.8
2018-May-19 18:30N 37°39' E 023°43'714.7
2018-May-19 18:00N 37°45' E 023°39'714.1
2018-May-19 17:30N 37°52' E 023°37'4 8.4
2018-May-19 17:00N 37°56' E 023°38'0 0.6
2018-May-19 16:29N 37°56' E 023°38'0 0.0
2018-May-19 15:59N 37°56' E 023°38'0 0.0
2018-May-19 15:29N 37°56' E 023°38'0 0.0
2018-May-19 14:59N 37°56' E 023°38'0 0.0
2018-May-19 14:29N 37°56' E 023°38'0 0.0
2018-May-19 13:59N 37°56' E 023°38'0 0.0
2018-May-19 13:29N 37°56' E 023°38'0 0.0
2018-May-19 12:59N 37°56' E 023°38'0 0.0
2018-May-19 12:29N 37°56' E 023°38'0 0.0
2018-May-19 11:59N 37°56' E 023°38'0 0.0
2018-May-19 11:29N 37°56' E 023°38'0 0.0
2018-May-19 10:59N 37°56' E 023°38'0 0.0
2018-May-19 10:29N 37°56' E 023°38'0 0.0
2018-May-19 09:59N 37°56' E 023°38'0 0.0
2018-May-19 09:29N 37°56' E 023°38'0 0.0
2018-May-19 08:59N 37°56' E 023°38'0 0.0
2018-May-19 08:29N 37°56' E 023°38'0 0.0
2018-May-19 07:59N 37°56' E 023°38'0 0.0
2018-May-19 07:29N 37°56' E 023°38'0 0.0
2018-May-19 06:58N 37°56' E 023°38'0 0.0
2018-May-19 06:28N 37°56' E 023°38'0 0.0
2018-May-19 05:58N 37°56' E 023°38'0 0.0
2018-May-19 05:28N 37°56' E 023°38'0 0.0
2018-May-19 04:58N 37°56' E 023°38'0 0.0
2018-May-19 04:28N 37°56' E 023°38'0 0.0
2018-May-19 03:58N 37°56' E 023°38'0 0.0
2018-May-19 03:28N 37°56' E 023°38'0 0.0
2018-May-19 02:58N 37°56' E 023°38'0 0.0
2018-May-19 02:28N 37°56' E 023°38'0 0.0
2018-May-19 01:58N 37°56' E 023°38'0 0.9
2018-May-19 01:30N 37°56' E 023°38'3 5.6
2018-May-19 01:00N 37°54' E 023°38'612.2
2018-May-19 00:30N 37°48' E 023°41'612.4
2018-May-19 00:01N 37°43' E 023°45'815.5
2018-May-18 23:31N 37°35' E 023°48'815.7
2018-May-18 23:00N 37°27' E 023°47'815.4
2018-May-18 22:30N 37°20' E 023°45'815.3
2018-May-18 22:00N 37°13' E 023°42'2626.0
2018-May-18 21:00N 36°48' E 023°54'1731.7 100 / 171012.510.8 22.217.420.6
2018-May-18 20:27N 36°50' E 023°33'27619.1
2018-May-18 06:00N 36°06' E 017°54'13617.0 080 / 221011.410.8 21.018.120.2
2018-May-17 22:00N 36°06' E 015°06'31 1.4 050 / 261013.2 5.4 18.916.618.1
2018-May-17 00:17N 35°54' E 014°31'1412.4
2018-May-16 23:08N 36°04' E 014°44'315.1
2018-May-16 22:56N 36°06' E 014°46'915.1
2018-May-16 22:21N 36°12' E 014°54'615.0
2018-May-16 21:55N 36°17' E 014°60'916.9
2018-May-16 21:23N 36°24' E 015°07'7517.0
2018-May-16 17:00N 37°36' E 015°30'2217.2 170 / 31016.610.8 17.913.119.0
2018-May-16 15:41N 37°58' E 015°33'518.4
2018-May-16 15:25N 38°03' E 015°34'718.5
2018-May-16 15:00N 38°11' E 015°35'2 0.2
2018-May-16 05:37N 38°12' E 015°33'0 0.2
2018-May-16 05:31N 38°12' E 015°34'2 3.4
2018-May-16 05:00N 38°13' E 015°35'712.9
2018-May-16 04:30N 38°17' E 015°41'714.6
2018-May-16 04:00N 38°23' E 015°35'713.9
2018-May-16 03:30N 38°30' E 015°33'713.9
2018-May-16 03:00N 38°36' E 015°30'714.0
2018-May-16 02:30N 38°43' E 015°27'917.1
2018-May-16 02:00N 38°48' E 015°18'6568.1 260 / 121016.410.8 17.210.919.1
2018-May-16 01:59N 38°49' E 015°25'5 8.3
2018-May-16 01:19N 38°54' E 015°23'3410.2
2018-May-15 22:00N 39°06' E 014°42'53 8.8 250 / 141016.010.8 16.9 9.619.0
2018-May-15 16:00N 39°18' E 013°36'92 9.2 280 / 191015.710.8 18.8 8.218.8
2018-May-15 06:00N 40°18' E 012°06'37 9.3 360 / 41014.610.8 16.2 8.818.2
2018-May-15 02:00N 40°54' E 011°54'85 3.5 310 / 151014.610.8 15.1 8.218.0
2018-May-14 02:00N 42°06' E 010°54'2212.4 360 / 151011.110.8 15.811.219.1
2018-May-14 00:11N 42°24' E 010°35'416.4
2018-May-13 23:57N 42°26' E 010°32'918.8
2018-May-13 23:27N 42°32' E 010°22'1219.2
2018-May-13 22:50N 42°39' E 010°09'1619.1
2018-May-13 22:00N 42°48' E 009°51'1817.5
2018-May-13 20:59N 43°02' E 009°35'818.0
2018-May-13 20:30N 43°10' E 009°34'918.3
2018-May-13 20:00N 43°19' E 009°33'917.9
2018-May-13 19:30N 43°28' E 009°32'917.5
2018-May-13 19:00N 43°37' E 009°36'918.0
2018-May-13 18:30N 43°45' E 009°41'918.2
2018-May-13 18:00N 43°53' E 009°47'918.4
2018-May-13 17:30N 44°01' E 009°52'510.1
2018-May-13 17:00N 44°06' E 009°50'0 0.3
2018-May-13 16:26N 44°06' E 009°50'0 0.0
2018-May-13 15:56N 44°06' E 009°50'0 0.0
2018-May-13 15:26N 44°06' E 009°50'0 0.0
2018-May-13 14:56N 44°06' E 009°50'0 0.0
2018-May-13 14:26N 44°06' E 009°50'0 0.0
2018-May-13 13:56N 44°06' E 009°50'0 0.0
2018-May-13 13:26N 44°06' E 009°50'0 0.0
2018-May-13 12:56N 44°06' E 009°50'0 0.0
2018-May-13 12:26N 44°06' E 009°50'0 0.0
2018-May-13 11:56N 44°06' E 009°50'0 0.0
2018-May-13 11:26N 44°06' E 009°50'0 0.0
2018-May-13 10:56N 44°06' E 009°50'0 0.0
2018-May-13 10:26N 44°06' E 009°50'0 0.0
2018-May-13 09:56N 44°06' E 009°50'0 0.0
2018-May-13 09:26N 44°06' E 009°50'0 0.0
2018-May-13 08:56N 44°06' E 009°50'0 0.0
2018-May-13 08:26N 44°06' E 009°50'0 0.0
2018-May-13 07:56N 44°06' E 009°50'0 0.0
2018-May-13 07:26N 44°06' E 009°50'0 0.0
2018-May-13 06:56N 44°06' E 009°50'0 0.0
2018-May-13 06:26N 44°06' E 009°50'0 0.0
2018-May-13 05:56N 44°06' E 009°50'0 0.0
2018-May-13 05:26N 44°06' E 009°50'0 0.0
2018-May-13 04:57N 44°06' E 009°50'0 1.0
2018-May-13 04:30N 44°06' E 009°51'3 6.5
2018-May-13 04:00N 44°03' E 009°52'611.1
2018-May-13 03:30N 43°59' E 009°58'612.8
2018-May-13 03:00N 43°54' E 009°53'713.3
2018-May-13 02:30N 43°49' E 009°48'713.6
2018-May-13 02:00N 43°43' E 009°42'713.6
2018-May-13 01:30N 43°38' E 009°36'713.5
2018-May-13 01:00N 43°32' E 009°31'612.9
2018-May-13 00:30N 43°27' E 009°25'612.9
2018-May-13 00:00N 43°22' E 009°20'713.0
2018-May-12 23:30N 43°17' E 009°15'9112.1
2018-May-12 16:00N 41°54' E 008°24'15 1.2 340 / 111015.610.8 18.312.618.6
2018-May-12 04:00N 41°42' E 008°36'2813.8 010 / 101018.110.8 16.112.518.2
2018-May-12 02:00N 41°18' E 008°54'6212.4 300 / 141018.210.8 17.013.117.3
2018-May-11 21:00N 40°48' E 010°06'5112.8 270 / 241017.710.8 18.110.518.0
2018-May-11 17:00N 40°00' E 010°30'5 4.6 210 / 71017.310.8 20.615.620.2
2018-May-11 16:00N 40°00' E 010°36'22015.7 210 / 61017.310.8 20.015.020.0
2018-May-11 02:00N 36°54' E 013°06'416.1 320 / 201015.210.8 17.016.317.5
2018-May-11 01:45N 36°58' E 013°07'415.2
2018-May-11 01:28N 36°55' E 013°12'715.3
2018-May-11 01:00N 36°51' E 013°19'815.3
2018-May-11 00:30N 36°47' E 013°27'815.3
2018-May-11 00:00N 36°42' E 013°35'815.2
2018-May-10 23:30N 36°37' E 013°42'715.1
2018-May-10 23:01N 36°32' E 013°49'714.7
2018-May-10 22:30N 36°27' E 013°55'714.7
2018-May-10 22:00N 36°22' E 014°02'714.8
2018-May-10 21:30N 36°17' E 014°09'814.9
2018-May-10 20:59N 36°12' E 014°17'715.1
2018-May-10 20:30N 36°08' E 014°24'715.1
2018-May-10 20:01N 36°03' E 014°31'814.7
2018-May-10 19:30N 35°56' E 014°34'4 0.2
2018-May-10 03:29N 35°53' E 014°31'3 5.6
2018-May-10 03:00N 35°55' E 014°33'611.2
2018-May-10 02:30N 35°59' E 014°39'612.1
2018-May-10 02:01N 36°02' E 014°44'9 8.5
2018-May-10 01:00N 36°06' E 014°54'   330 / 111008.310.8 17.415.019.0

Dump ship's entire track history